Terminal Aerodrome Forecast
Issued by NWS Medford, OR

Home | Current Version | Previous Version | Text Only | Print | Product List | Glossary On
Versions: 1 2 3 4 5 6 7 8 9 10 11 12 13 14 15 16 17
000
FTUS46 KMFR 250500
TAFMFR
TAF
KMFR 250520Z 2506/2606 VRB03KT P6SM OVC100
     FM251200 15014G25KT P6SM OVC060
     FM252200 30008KT P6SM -SHRA OVC035=

USA.gov is the U.S. government's official web portal to all federal, state and local government web resources and services.